sensor_id;sensor_type;location;lat;lon;timestamp;P1;durP1;ratioP1;P2;durP2;ratioP2
40997;SDS011;26740;45.944;12.480;2024-02-15T00:02:14;13.90;;;8.30;;
40997;SDS011;26740;45.944;12.480;2024-02-15T00:04:39;16.35;;;7.97;;
40997;SDS011;26740;45.944;12.480;2024-02-15T00:07:05;12.27;;;7.68;;
40997;SDS011;26740;45.944;12.480;2024-02-15T00:09:31;13.57;;;7.75;;
40997;SDS011;26740;45.944;12.480;2024-02-15T00:11:56;15.80;;;8.15;;
40997;SDS011;26740;45.944;12.480;2024-02-15T00:14:25;17.10;;;8.82;;
40997;SDS011;26740;45.944;12.480;2024-02-15T00:16:53;11.68;;;8.00;;
40997;SDS011;26740;45.944;12.480;2024-02-15T00:19:18;15.05;;;8.57;;
40997;SDS011;26740;45.944;12.480;2024-02-15T00:21:44;14.63;;;8.88;;
40997;SDS011;26740;45.944;12.480;2024-02-15T00:24:10;14.00;;;8.55;;
40997;SDS011;26740;45.944;12.480;2024-02-15T00:26:35;19.55;;;8.82;;
40997;SDS011;26740;45.944;12.480;2024-02-15T00:29:01;16.70;;;8.45;;
40997;SDS011;26740;45.944;12.480;2024-02-15T00:31:26;14.60;;;9.20;;
40997;SDS011;26740;45.944;12.480;2024-02-15T00:33:52;16.00;;;9.52;;
40997;SDS011;26740;45.944;12.480;2024-02-15T00:36:19;14.90;;;8.55;;
40997;SDS011;26740;45.944;12.480;2024-02-15T00:38:44;10.98;;;7.88;;
40997;SDS011;26740;45.944;12.480;2024-02-15T00:41:10;13.77;;;7.40;;
40997;SDS011;26740;45.944;12.480;2024-02-15T00:43:36;16.25;;;8.50;;
40997;SDS011;26740;45.944;12.480;2024-02-15T00:46:01;12.80;;;8.15;;
40997;SDS011;26740;45.944;12.480;2024-02-15T00:48:27;16.40;;;9.43;;
40997;SDS011;26740;45.944;12.480;2024-02-15T00:50:55;20.65;;;11.25;;
40997;SDS011;26740;45.944;12.480;2024-02-15T00:53:21;15.75;;;9.02;;
40997;SDS011;26740;45.944;12.480;2024-02-15T00:55:47;16.20;;;9.90;;
40997;SDS011;26740;45.944;12.480;2024-02-15T00:58:12;13.43;;;8.25;;
40997;SDS011;26740;45.944;12.480;2024-02-15T01:00:38;15.02;;;8.70;;
40997;SDS011;26740;45.944;12.480;2024-02-15T01:03:04;14.35;;;9.55;;
40997;SDS011;26740;45.944;12.480;2024-02-15T01:05:29;18.42;;;8.35;;
40997;SDS011;26740;45.944;12.480;2024-02-15T01:07:55;18.45;;;8.80;;
40997;SDS011;26740;45.944;12.480;2024-02-15T01:10:21;16.60;;;9.75;;
40997;SDS011;26740;45.944;12.480;2024-02-15T01:12:49;15.68;;;8.50;;
40997;SDS011;26740;45.944;12.480;2024-02-15T01:15:15;13.73;;;8.18;;
40997;SDS011;26740;45.944;12.480;2024-02-15T01:17:44;17.40;;;8.15;;
40997;SDS011;26740;45.944;12.480;2024-02-15T01:20:10;11.48;;;7.18;;
40997;SDS011;26740;45.944;12.480;2024-02-15T01:22:36;11.05;;;7.70;;
40997;SDS011;26740;45.944;12.480;2024-02-15T01:25:02;11.27;;;7.65;;
40997;SDS011;26740;45.944;12.480;2024-02-15T01:27:28;11.45;;;7.65;;
40997;SDS011;26740;45.944;12.480;2024-02-15T01:29:56;8.20;;;6.13;;
40997;SDS011;26740;45.944;12.480;2024-02-15T01:32:22;11.30;;;7.45;;
40997;SDS011;26740;45.944;12.480;2024-02-15T01:34:47;11.40;;;7.00;;
40997;SDS011;26740;45.944;12.480;2024-02-15T01:37:13;8.90;;;6.30;;
40997;SDS011;26740;45.944;12.480;2024-02-15T01:39:39;10.30;;;6.55;;
40997;SDS011;26740;45.944;12.480;2024-02-15T01:42:05;13.20;;;6.97;;
40997;SDS011;26740;45.944;12.480;2024-02-15T01:44:31;14.88;;;6.80;;
40997;SDS011;26740;45.944;12.480;2024-02-15T01:46:57;11.88;;;7.35;;
40997;SDS011;26740;45.944;12.480;2024-02-15T01:49:24;11.80;;;7.22;;
40997;SDS011;26740;45.944;12.480;2024-02-15T01:51:51;11.25;;;7.20;;
40997;SDS011;26740;45.944;12.480;2024-02-15T01:54:21;9.65;;;6.65;;
40997;SDS011;26740;45.944;12.480;2024-02-15T01:56:48;11.63;;;5.88;;
40997;SDS011;26740;45.944;12.480;2024-02-15T01:59:15;11.27;;;6.88;;
40997;SDS011;26740;45.944;12.480;2024-02-15T02:01:41;10.23;;;6.70;;
40997;SDS011;26740;45.944;12.480;2024-02-15T02:04:07;9.43;;;6.38;;
40997;SDS011;26740;45.944;12.480;2024-02-15T02:06:34;8.75;;;6.72;;
40997;SDS011;26740;45.944;12.480;2024-02-15T02:09:02;9.90;;;6.80;;
40997;SDS011;26740;45.944;12.480;2024-02-15T02:11:28;9.07;;;5.85;;
40997;SDS011;26740;45.944;12.480;2024-02-15T02:13:55;7.63;;;5.95;;
40997;SDS011;26740;45.944;12.480;2024-02-15T02:16:30;12.43;;;7.53;;
40997;SDS011;26740;45.944;12.480;2024-02-15T02:18:57;8.05;;;5.40;;
40997;SDS011;26740;45.944;12.480;2024-02-15T02:21:27;8.98;;;6.00;;
40997;SDS011;26740;45.944;12.480;2024-02-15T02:23:55;9.32;;;6.60;;
40997;SDS011;26740;45.944;12.480;2024-02-15T02:26:23;10.55;;;6.65;;
40997;SDS011;26740;45.944;12.480;2024-02-15T02:28:50;7.97;;;5.78;;
40997;SDS011;26740;45.944;12.480;2024-02-15T02:31:18;11.25;;;6.43;;
40997;SDS011;26740;45.944;12.480;2024-02-15T02:33:49;9.35;;;6.22;;
40997;SDS011;26740;45.944;12.480;2024-02-15T02:36:19;11.60;;;5.85;;
40997;SDS011;26740;45.944;12.480;2024-02-15T02:38:45;9.50;;;6.45;;
40997;SDS011;26740;45.944;12.480;2024-02-15T02:41:11;9.60;;;6.40;;
40997;SDS011;26740;45.944;12.480;2024-02-15T02:43:40;12.45;;;6.53;;
40997;SDS011;26740;45.944;12.480;2024-02-15T02:46:06;13.85;;;7.10;;
40997;SDS011;26740;45.944;12.480;2024-02-15T02:48:32;13.23;;;6.05;;
40997;SDS011;26740;45.944;12.480;2024-02-15T02:50:57;9.75;;;6.10;;
40997;SDS011;26740;45.944;12.480;2024-02-15T02:53:23;10.05;;;6.65;;
40997;SDS011;26740;45.944;12.480;2024-02-15T02:55:49;11.95;;;6.22;;
40997;SDS011;26740;45.944;12.480;2024-02-15T02:58:17;10.60;;;5.60;;
40997;SDS011;26740;45.944;12.480;2024-02-15T03:00:42;14.40;;;6.47;;
40997;SDS011;26740;45.944;12.480;2024-02-15T03:03:08;13.90;;;6.57;;
40997;SDS011;26740;45.944;12.480;2024-02-15T03:05:34;8.88;;;5.85;;
40997;SDS011;26740;45.944;12.480;2024-02-15T03:08:00;7.93;;;6.00;;
40997;SDS011;26740;45.944;12.480;2024-02-15T03:10:26;7.07;;;5.93;;
40997;SDS011;26740;45.944;12.480;2024-02-15T03:12:52;8.98;;;6.45;;
40997;SDS011;26740;45.944;12.480;2024-02-15T03:15:17;8.57;;;6.00;;
40997;SDS011;26740;45.944;12.480;2024-02-15T03:17:44;11.30;;;6.43;;
40997;SDS011;26740;45.944;12.480;2024-02-15T03:20:11;10.80;;;6.72;;
40997;SDS011;26740;45.944;12.480;2024-02-15T03:22:56;9.07;;;6.07;;
40997;SDS011;26740;45.944;12.480;2024-02-15T03:25:23;10.43;;;6.03;;
40997;SDS011;26740;45.944;12.480;2024-02-15T03:27:56;11.52;;;6.00;;
40997;SDS011;26740;45.944;12.480;2024-02-15T03:30:24;8.55;;;6.40;;
40997;SDS011;26740;45.944;12.480;2024-02-15T03:32:51;10.95;;;6.70;;
40997;SDS011;26740;45.944;12.480;2024-02-15T03:35:17;7.82;;;5.35;;
40997;SDS011;26740;45.944;12.480;2024-02-15T03:37:44;12.60;;;5.93;;
40997;SDS011;26740;45.944;12.480;2024-02-15T03:40:10;7.93;;;5.38;;
40997;SDS011;26740;45.944;12.480;2024-02-15T03:42:36;7.20;;;5.43;;
40997;SDS011;26740;45.944;12.480;2024-02-15T03:45:02;9.73;;;5.63;;
40997;SDS011;26740;45.944;12.480;2024-02-15T03:47:28;11.35;;;5.43;;
40997;SDS011;26740;45.944;12.480;2024-02-15T03:49:54;7.60;;;5.47;;
40997;SDS011;26740;45.944;12.480;2024-02-15T03:52:21;13.13;;;6.88;;
40997;SDS011;26740;45.944;12.480;2024-02-15T03:54:47;12.15;;;6.78;;
40997;SDS011;26740;45.944;12.480;2024-02-15T03:57:12;11.40;;;6.18;;
40997;SDS011;26740;45.944;12.480;2024-02-15T03:59:38;9.73;;;6.07;;
40997;SDS011;26740;45.944;12.480;2024-02-15T04:02:05;10.32;;;6.30;;
40997;SDS011;26740;45.944;12.480;2024-02-15T04:04:37;9.75;;;6.32;;
40997;SDS011;26740;45.944;12.480;2024-02-15T04:07:06;10.68;;;7.07;;
40997;SDS011;26740;45.944;12.480;2024-02-15T04:09:32;11.52;;;6.97;;
40997;SDS011;26740;45.944;12.480;2024-02-15T04:12:00;13.60;;;6.72;;
40997;SDS011;26740;45.944;12.480;2024-02-15T04:14:28;11.63;;;6.93;;
40997;SDS011;26740;45.944;12.480;2024-02-15T04:16:54;12.60;;;6.55;;
40997;SDS011;26740;45.944;12.480;2024-02-15T04:19:20;11.63;;;6.47;;
40997;SDS011;26740;45.944;12.480;2024-02-15T04:21:47;14.25;;;7.53;;
40997;SDS011;26740;45.944;12.480;2024-02-15T04:24:13;13.25;;;7.30;;
40997;SDS011;26740;45.944;12.480;2024-02-15T04:26:39;11.18;;;6.90;;
40997;SDS011;26740;45.944;12.480;2024-02-15T04:29:05;9.52;;;6.28;;
40997;SDS011;26740;45.944;12.480;2024-02-15T04:31:34;10.13;;;6.78;;
40997;SDS011;26740;45.944;12.480;2024-02-15T04:34:02;11.32;;;6.25;;
40997;SDS011;26740;45.944;12.480;2024-02-15T04:36:28;12.93;;;6.28;;
40997;SDS011;26740;45.944;12.480;2024-02-15T04:38:58;7.65;;;5.30;;
40997;SDS011;26740;45.944;12.480;2024-02-15T04:41:27;10.43;;;6.35;;
40997;SDS011;26740;45.944;12.480;2024-02-15T04:43:54;7.32;;;5.40;;
40997;SDS011;26740;45.944;12.480;2024-02-15T04:46:20;9.25;;;6.10;;
40997;SDS011;26740;45.944;12.480;2024-02-15T04:48:50;11.48;;;5.68;;
40997;SDS011;26740;45.944;12.480;2024-02-15T04:51:15;13.25;;;5.70;;
40997;SDS011;26740;45.944;12.480;2024-02-15T04:53:42;11.27;;;6.75;;
40997;SDS011;26740;45.944;12.480;2024-02-15T04:56:14;11.70;;;6.55;;
40997;SDS011;26740;45.944;12.480;2024-02-15T04:58:40;12.82;;;6.30;;
40997;SDS011;26740;45.944;12.480;2024-02-15T05:01:15;13.35;;;7.18;;
40997;SDS011;26740;45.944;12.480;2024-02-15T05:03:44;10.77;;;7.10;;
40997;SDS011;26740;45.944;12.480;2024-02-15T05:06:10;8.82;;;5.63;;
40997;SDS011;26740;45.944;12.480;2024-02-15T05:08:40;9.57;;;5.55;;
40997;SDS011;26740;45.944;12.480;2024-02-15T05:11:12;11.73;;;6.78;;
40997;SDS011;26740;45.944;12.480;2024-02-15T05:13:44;11.85;;;6.85;;
40997;SDS011;26740;45.944;12.480;2024-02-15T05:16:12;9.98;;;5.93;;
40997;SDS011;26740;45.944;12.480;2024-02-15T05:18:38;8.57;;;6.15;;
40997;SDS011;26740;45.944;12.480;2024-02-15T05:21:05;10.70;;;6.43;;
40997;SDS011;26740;45.944;12.480;2024-02-15T05:23:40;12.07;;;6.90;;
40997;SDS011;26740;45.944;12.480;2024-02-15T05:26:08;11.73;;;6.07;;
40997;SDS011;26740;45.944;12.480;2024-02-15T05:28:35;7.90;;;5.85;;
40997;SDS011;26740;45.944;12.480;2024-02-15T05:31:11;11.65;;;6.50;;
40997;SDS011;26740;45.944;12.480;2024-02-15T05:33:38;12.38;;;7.18;;
40997;SDS011;26740;45.944;12.480;2024-02-15T05:36:09;11.85;;;5.30;;
40997;SDS011;26740;45.944;12.480;2024-02-15T05:38:39;8.20;;;5.63;;
40997;SDS011;26740;45.944;12.480;2024-02-15T05:41:05;8.48;;;5.43;;
40997;SDS011;26740;45.944;12.480;2024-02-15T05:43:34;6.85;;;4.90;;
40997;SDS011;26740;45.944;12.480;2024-02-15T05:46:02;10.30;;;5.63;;
40997;SDS011;26740;45.944;12.480;2024-02-15T05:48:28;13.23;;;6.70;;
40997;SDS011;26740;45.944;12.480;2024-02-15T05:50:57;10.13;;;6.25;;
40997;SDS011;26740;45.944;12.480;2024-02-15T05:53:24;13.57;;;5.80;;
40997;SDS011;26740;45.944;12.480;2024-02-15T05:55:49;11.77;;;6.18;;
40997;SDS011;26740;45.944;12.480;2024-02-15T05:58:15;18.55;;;6.30;;
40997;SDS011;26740;45.944;12.480;2024-02-15T06:00:42;8.13;;;6.10;;
40997;SDS011;26740;45.944;12.480;2024-02-15T06:03:09;11.90;;;7.25;;
40997;SDS011;26740;45.944;12.480;2024-02-15T06:05:36;10.38;;;6.20;;
40997;SDS011;26740;45.944;12.480;2024-02-15T06:08:03;10.98;;;6.28;;
40997;SDS011;26740;45.944;12.480;2024-02-15T06:10:29;20.55;;;8.23;;
40997;SDS011;26740;45.944;12.480;2024-02-15T06:12:56;24.48;;;11.50;;
40997;SDS011;26740;45.944;12.480;2024-02-15T06:15:24;19.55;;;9.73;;
40997;SDS011;26740;45.944;12.480;2024-02-15T06:17:50;9.18;;;6.25;;
40997;SDS011;26740;45.944;12.480;2024-02-15T06:20:16;12.07;;;7.68;;
40997;SDS011;26740;45.944;12.480;2024-02-15T06:22:48;19.42;;;9.10;;
40997;SDS011;26740;45.944;12.480;2024-02-15T06:25:14;12.45;;;8.25;;
40997;SDS011;26740;45.944;12.480;2024-02-15T06:27:45;17.17;;;9.18;;
40997;SDS011;26740;45.944;12.480;2024-02-15T06:30:11;14.77;;;8.65;;
40997;SDS011;26740;45.944;12.480;2024-02-15T06:32:59;11.13;;;7.63;;
40997;SDS011;26740;45.944;12.480;2024-02-15T06:35:43;18.58;;;7.25;;
40997;SDS011;26740;45.944;12.480;2024-02-15T06:38:27;13.27;;;7.00;;
40997;SDS011;26740;45.944;12.480;2024-02-15T06:41:12;12.40;;;7.07;;
40997;SDS011;26740;45.944;12.480;2024-02-15T06:43:38;12.70;;;6.68;;
40997;SDS011;26740;45.944;12.480;2024-02-15T06:46:07;10.32;;;6.30;;
40997;SDS011;26740;45.944;12.480;2024-02-15T06:48:33;10.93;;;7.03;;
40997;SDS011;26740;45.944;12.480;2024-02-15T06:50:59;9.48;;;6.65;;
40997;SDS011;26740;45.944;12.480;2024-02-15T06:53:25;10.05;;;6.68;;
40997;SDS011;26740;45.944;12.480;2024-02-15T06:55:50;8.93;;;6.07;;
40997;SDS011;26740;45.944;12.480;2024-02-15T06:58:16;9.93;;;6.57;;
40997;SDS011;26740;45.944;12.480;2024-02-15T07:00:42;7.68;;;5.43;;
40997;SDS011;26740;45.944;12.480;2024-02-15T07:03:08;16.58;;;8.50;;
40997;SDS011;26740;45.944;12.480;2024-02-15T07:05:36;14.93;;;8.82;;
40997;SDS011;26740;45.944;12.480;2024-02-15T07:08:04;16.75;;;10.43;;
40997;SDS011;26740;45.944;12.480;2024-02-15T07:10:30;13.25;;;7.68;;
40997;SDS011;26740;45.944;12.480;2024-02-15T07:12:56;14.07;;;7.43;;
40997;SDS011;26740;45.944;12.480;2024-02-15T07:15:22;13.18;;;7.35;;
40997;SDS011;26740;45.944;12.480;2024-02-15T07:17:48;10.55;;;7.25;;
40997;SDS011;26740;45.944;12.480;2024-02-15T07:20:13;13.55;;;6.85;;
40997;SDS011;26740;45.944;12.480;2024-02-15T07:22:42;14.15;;;7.50;;
40997;SDS011;26740;45.944;12.480;2024-02-15T07:25:10;13.60;;;8.43;;
40997;SDS011;26740;45.944;12.480;2024-02-15T07:27:36;9.73;;;6.63;;
40997;SDS011;26740;45.944;12.480;2024-02-15T07:30:02;15.13;;;9.40;;
40997;SDS011;26740;45.944;12.480;2024-02-15T07:32:30;15.30;;;9.18;;
40997;SDS011;26740;45.944;12.480;2024-02-15T07:34:57;13.77;;;8.25;;
40997;SDS011;26740;45.944;12.480;2024-02-15T07:37:23;12.25;;;8.82;;
40997;SDS011;26740;45.944;12.480;2024-02-15T07:39:51;16.08;;;8.38;;
40997;SDS011;26740;45.944;12.480;2024-02-15T07:42:17;15.75;;;9.38;;
40997;SDS011;26740;45.944;12.480;2024-02-15T07:44:43;13.15;;;7.53;;
40997;SDS011;26740;45.944;12.480;2024-02-15T07:47:08;12.75;;;7.85;;
40997;SDS011;26740;45.944;12.480;2024-02-15T07:49:35;20.55;;;7.40;;
40997;SDS011;26740;45.944;12.480;2024-02-15T07:52:02;12.07;;;7.78;;
40997;SDS011;26740;45.944;12.480;2024-02-15T07:54:30;15.50;;;7.57;;
40997;SDS011;26740;45.944;12.480;2024-02-15T07:56:58;16.67;;;7.75;;
40997;SDS011;26740;45.944;12.480;2024-02-15T07:59:23;15.05;;;8.73;;
40997;SDS011;26740;45.944;12.480;2024-02-15T08:01:49;13.93;;;7.97;;
40997;SDS011;26740;45.944;12.480;2024-02-15T08:04:15;9.25;;;7.07;;
40997;SDS011;26740;45.944;12.480;2024-02-15T08:06:42;15.98;;;9.05;;
40997;SDS011;26740;45.944;12.480;2024-02-15T08:09:09;15.02;;;8.80;;
40997;SDS011;26740;45.944;12.480;2024-02-15T08:11:43;17.65;;;9.15;;
40997;SDS011;26740;45.944;12.480;2024-02-15T08:14:09;12.15;;;8.30;;
40997;SDS011;26740;45.944;12.480;2024-02-15T08:16:36;12.77;;;7.75;;
40997;SDS011;26740;45.944;12.480;2024-02-15T08:19:06;15.43;;;8.05;;
40997;SDS011;26740;45.944;12.480;2024-02-15T08:21:32;15.32;;;7.80;;
40997;SDS011;26740;45.944;12.480;2024-02-15T08:24:00;16.05;;;8.82;;
40997;SDS011;26740;45.944;12.480;2024-02-15T08:26:37;13.70;;;8.73;;
40997;SDS011;26740;45.944;12.480;2024-02-15T08:29:03;17.33;;;10.65;;
40997;SDS011;26740;45.944;12.480;2024-02-15T08:31:31;15.05;;;9.50;;
40997;SDS011;26740;45.944;12.480;2024-02-15T08:33:57;15.90;;;9.32;;
40997;SDS011;26740;45.944;12.480;2024-02-15T08:36:23;18.30;;;8.63;;
40997;SDS011;26740;45.944;12.480;2024-02-15T08:38:51;15.38;;;9.25;;
40997;SDS011;26740;45.944;12.480;2024-02-15T08:41:17;16.60;;;8.82;;
40997;SDS011;26740;45.944;12.480;2024-02-15T08:43:43;11.73;;;7.97;;
40997;SDS011;26740;45.944;12.480;2024-02-15T08:46:11;15.30;;;9.05;;
40997;SDS011;26740;45.944;12.480;2024-02-15T08:48:37;14.55;;;9.10;;
40997;SDS011;26740;45.944;12.480;2024-02-15T08:51:03;14.43;;;9.57;;
40997;SDS011;26740;45.944;12.480;2024-02-15T08:53:31;17.20;;;9.65;;
40997;SDS011;26740;45.944;12.480;2024-02-15T08:55:57;16.38;;;9.90;;
40997;SDS011;26740;45.944;12.480;2024-02-15T08:58:22;19.70;;;10.77;;
40997;SDS011;26740;45.944;12.480;2024-02-15T09:00:48;15.18;;;10.43;;
40997;SDS011;26740;45.944;12.480;2024-02-15T09:03:14;17.70;;;10.20;;
40997;SDS011;26740;45.944;12.480;2024-02-15T09:05:40;16.05;;;11.02;;
40997;SDS011;26740;45.944;12.480;2024-02-15T09:08:06;17.00;;;9.52;;
40997;SDS011;26740;45.944;12.480;2024-02-15T09:10:32;13.85;;;10.05;;
40997;SDS011;26740;45.944;12.480;2024-02-15T09:12:58;18.00;;;9.77;;
40997;SDS011;26740;45.944;12.480;2024-02-15T09:15:23;11.68;;;9.45;;
40997;SDS011;26740;45.944;12.480;2024-02-15T09:17:50;11.93;;;9.88;;
40997;SDS011;26740;45.944;12.480;2024-02-15T09:20:16;15.73;;;10.63;;
40997;SDS011;26740;45.944;12.480;2024-02-15T09:22:52;18.17;;;11.45;;
40997;SDS011;26740;45.944;12.480;2024-02-15T09:25:19;15.90;;;10.57;;
40997;SDS011;26740;45.944;12.480;2024-02-15T09:27:48;13.18;;;10.40;;
40997;SDS011;26740;45.944;12.480;2024-02-15T09:30:14;13.15;;;10.27;;
40997;SDS011;26740;45.944;12.480;2024-02-15T09:32:41;13.48;;;10.30;;
40997;SDS011;26740;45.944;12.480;2024-02-15T09:35:07;12.75;;;9.85;;
40997;SDS011;26740;45.944;12.480;2024-02-15T09:37:44;12.55;;;9.15;;
40997;SDS011;26740;45.944;12.480;2024-02-15T09:40:11;13.48;;;9.63;;
40997;SDS011;26740;45.944;12.480;2024-02-15T09:42:38;15.30;;;10.80;;
40997;SDS011;26740;45.944;12.480;2024-02-15T09:45:07;11.07;;;9.82;;
40997;SDS011;26740;45.944;12.480;2024-02-15T09:47:38;12.65;;;9.55;;
40997;SDS011;26740;45.944;12.480;2024-02-15T09:50:07;15.32;;;10.07;;
40997;SDS011;26740;45.944;12.480;2024-02-15T09:52:39;12.68;;;10.65;;
40997;SDS011;26740;45.944;12.480;2024-02-15T09:55:06;16.83;;;11.75;;
40997;SDS011;26740;45.944;12.480;2024-02-15T09:57:38;13.48;;;10.45;;
40997;SDS011;26740;45.944;12.480;2024-02-15T10:00:04;13.60;;;10.27;;
40997;SDS011;26740;45.944;12.480;2024-02-15T10:02:36;13.52;;;10.43;;
40997;SDS011;26740;45.944;12.480;2024-02-15T10:05:03;14.38;;;11.05;;
40997;SDS011;26740;45.944;12.480;2024-02-15T10:07:29;13.68;;;10.95;;
40997;SDS011;26740;45.944;12.480;2024-02-15T10:09:55;13.10;;;10.77;;
40997;SDS011;26740;45.944;12.480;2024-02-15T10:12:20;13.48;;;10.38;;
40997;SDS011;26740;45.944;12.480;2024-02-15T10:14:49;16.15;;;10.63;;
40997;SDS011;26740;45.944;12.480;2024-02-15T10:17:20;16.20;;;9.77;;
40997;SDS011;26740;45.944;12.480;2024-02-15T10:20:02;11.13;;;9.23;;
40997;SDS011;26740;45.944;12.480;2024-02-15T10:22:28;11.75;;;9.15;;
40997;SDS011;26740;45.944;12.480;2024-02-15T10:25:09;13.10;;;10.45;;
40997;SDS011;26740;45.944;12.480;2024-02-15T10:27:36;14.43;;;10.38;;
40997;SDS011;26740;45.944;12.480;2024-02-15T10:32:42;16.38;;;11.65;;
40997;SDS011;26740;45.944;12.480;2024-02-15T10:35:09;14.57;;;11.02;;
40997;SDS011;26740;45.944;12.480;2024-02-15T10:37:35;13.57;;;10.32;;
40997;SDS011;26740;45.944;12.480;2024-02-15T10:40:07;12.98;;;9.73;;
40997;SDS011;26740;45.944;12.480;2024-02-15T10:42:33;14.30;;;9.90;;
40997;SDS011;26740;45.944;12.480;2024-02-15T10:45:04;13.63;;;10.48;;
40997;SDS011;26740;45.944;12.480;2024-02-15T10:47:35;14.45;;;10.63;;
40997;SDS011;26740;45.944;12.480;2024-02-15T10:50:04;13.05;;;9.63;;
40997;SDS011;26740;45.944;12.480;2024-02-15T10:52:31;13.40;;;10.73;;
40997;SDS011;26740;45.944;12.480;2024-02-15T10:55:03;13.30;;;10.68;;
40997;SDS011;26740;45.944;12.480;2024-02-15T10:57:34;14.55;;;10.90;;
40997;SDS011;26740;45.944;12.480;2024-02-15T11:00:04;17.83;;;12.18;;
40997;SDS011;26740;45.944;12.480;2024-02-15T11:02:42;19.90;;;11.18;;
40997;SDS011;26740;45.944;12.480;2024-02-15T11:05:27;16.65;;;12.10;;
40997;SDS011;26740;45.944;12.480;2024-02-15T11:07:57;20.77;;;12.02;;
40997;SDS011;26740;45.944;12.480;2024-02-15T11:10:23;14.32;;;10.27;;
40997;SDS011;26740;45.944;12.480;2024-02-15T11:12:51;15.95;;;11.60;;
40997;SDS011;26740;45.944;12.480;2024-02-15T11:21:09;15.60;;;11.07;;
40997;SDS011;26740;45.944;12.480;2024-02-15T11:23:35;15.57;;;11.05;;
40997;SDS011;26740;45.944;12.480;2024-02-15T11:26:01;15.95;;;10.73;;
40997;SDS011;26740;45.944;12.480;2024-02-15T11:30:55;13.50;;;9.85;;
40997;SDS011;26740;45.944;12.480;2024-02-15T11:33:28;12.52;;;10.18;;
40997;SDS011;26740;45.944;12.480;2024-02-15T11:36:04;14.40;;;10.50;;
40997;SDS011;26740;45.944;12.480;2024-02-15T11:38:36;16.65;;;10.90;;
40997;SDS011;26740;45.944;12.480;2024-02-15T11:41:06;14.38;;;10.85;;
40997;SDS011;26740;45.944;12.480;2024-02-15T11:46:19;15.20;;;10.75;;
40997;SDS011;26740;45.944;12.480;2024-02-15T11:48:45;18.33;;;11.65;;
40997;SDS011;26740;45.944;12.480;2024-02-15T11:51:26;13.27;;;10.48;;
40997;SDS011;26740;45.944;12.480;2024-02-15T11:54:05;13.50;;;10.30;;
40997;SDS011;26740;45.944;12.480;2024-02-15T11:56:53;15.20;;;10.40;;
40997;SDS011;26740;45.944;12.480;2024-02-15T11:59:42;14.23;;;10.45;;
40997;SDS011;26740;45.944;12.480;2024-02-15T12:02:28;14.60;;;9.98;;
40997;SDS011;26740;45.944;12.480;2024-02-15T12:05:15;13.48;;;9.75;;
40997;SDS011;26740;45.944;12.480;2024-02-15T12:08:00;14.82;;;9.48;;
40997;SDS011;26740;45.944;12.480;2024-02-15T12:10:56;14.48;;;9.88;;
40997;SDS011;26740;45.944;12.480;2024-02-15T12:13:41;12.82;;;9.55;;
40997;SDS011;26740;45.944;12.480;2024-02-15T12:16:24;15.50;;;10.90;;
40997;SDS011;26740;45.944;12.480;2024-02-15T12:19:08;16.73;;;11.90;;
40997;SDS011;26740;45.944;12.480;2024-02-15T12:21:35;14.25;;;10.25;;
40997;SDS011;26740;45.944;12.480;2024-02-15T12:24:06;13.55;;;10.90;;
40997;SDS011;26740;45.944;12.480;2024-02-15T12:26:32;15.13;;;10.45;;
40997;SDS011;26740;45.944;12.480;2024-02-15T12:28:59;15.90;;;10.40;;
40997;SDS011;26740;45.944;12.480;2024-02-15T12:31:26;16.13;;;10.43;;
40997;SDS011;26740;45.944;12.480;2024-02-15T12:34:11;15.25;;;10.82;;
40997;SDS011;26740;45.944;12.480;2024-02-15T12:36:38;13.30;;;10.45;;
40997;SDS011;26740;45.944;12.480;2024-02-15T12:39:04;14.05;;;10.38;;
40997;SDS011;26740;45.944;12.480;2024-02-15T12:41:39;16.35;;;10.90;;
40997;SDS011;26740;45.944;12.480;2024-02-15T12:44:06;15.02;;;10.52;;
40997;SDS011;26740;45.944;12.480;2024-02-15T12:46:36;13.50;;;9.85;;
40997;SDS011;26740;45.944;12.480;2024-02-15T12:51:39;12.48;;;9.98;;
40997;SDS011;26740;45.944;12.480;2024-02-15T12:54:09;15.93;;;9.65;;
40997;SDS011;26740;45.944;12.480;2024-02-15T12:56:39;12.75;;;10.02;;
40997;SDS011;26740;45.944;12.480;2024-02-15T12:59:05;14.35;;;9.98;;
40997;SDS011;26740;45.944;12.480;2024-02-15T13:01:31;14.43;;;10.23;;
40997;SDS011;26740;45.944;12.480;2024-02-15T13:03:57;12.88;;;8.82;;
40997;SDS011;26740;45.944;12.480;2024-02-15T13:06:23;12.73;;;9.40;;
40997;SDS011;26740;45.944;12.480;2024-02-15T13:08:49;17.13;;;9.40;;
40997;SDS011;26740;45.944;12.480;2024-02-15T13:11:15;13.85;;;9.25;;
40997;SDS011;26740;45.944;12.480;2024-02-15T13:13:41;11.13;;;8.52;;
40997;SDS011;26740;45.944;12.480;2024-02-15T13:16:07;11.75;;;9.23;;
40997;SDS011;26740;45.944;12.480;2024-02-15T13:18:33;14.52;;;10.40;;
40997;SDS011;26740;45.944;12.480;2024-02-15T13:20:59;13.88;;;9.40;;
40997;SDS011;26740;45.944;12.480;2024-02-15T13:23:24;12.98;;;9.30;;
40997;SDS011;26740;45.944;12.480;2024-02-15T13:25:53;12.32;;;9.30;;
40997;SDS011;26740;45.944;12.480;2024-02-15T13:28:21;14.02;;;9.60;;
40997;SDS011;26740;45.944;12.480;2024-02-15T13:30:48;13.40;;;10.05;;
40997;SDS011;26740;45.944;12.480;2024-02-15T13:33:14;13.30;;;9.55;;
40997;SDS011;26740;45.944;12.480;2024-02-15T13:35:41;12.75;;;9.45;;
40997;SDS011;26740;45.944;12.480;2024-02-15T13:38:06;14.25;;;9.68;;
40997;SDS011;26740;45.944;12.480;2024-02-15T13:40:39;16.60;;;10.88;;
40997;SDS011;26740;45.944;12.480;2024-02-15T13:43:05;14.30;;;11.27;;
40997;SDS011;26740;45.944;12.480;2024-02-15T13:45:32;12.75;;;10.75;;
40997;SDS011;26740;45.944;12.480;2024-02-15T13:48:05;16.08;;;11.50;;
40997;SDS011;26740;45.944;12.480;2024-02-15T13:50:34;13.20;;;10.13;;
40997;SDS011;26740;45.944;12.480;2024-02-15T13:53:00;15.13;;;10.82;;
40997;SDS011;26740;45.944;12.480;2024-02-15T13:55:27;14.60;;;10.55;;
40997;SDS011;26740;45.944;12.480;2024-02-15T13:57:53;13.63;;;9.98;;
40997;SDS011;26740;45.944;12.480;2024-02-15T14:00:23;13.75;;;9.80;;
40997;SDS011;26740;45.944;12.480;2024-02-15T14:02:59;15.30;;;10.63;;
40997;SDS011;26740;45.944;12.480;2024-02-15T14:05:27;13.20;;;10.52;;
40997;SDS011;26740;45.944;12.480;2024-02-15T14:07:57;14.35;;;10.93;;
40997;SDS011;26740;45.944;12.480;2024-02-15T14:10:30;17.30;;;11.07;;
40997;SDS011;26740;45.944;12.480;2024-02-15T14:12:58;15.25;;;11.48;;
40997;SDS011;26740;45.944;12.480;2024-02-15T14:15:25;15.60;;;11.18;;
40997;SDS011;26740;45.944;12.480;2024-02-15T14:17:51;15.15;;;11.20;;
40997;SDS011;26740;45.944;12.480;2024-02-15T14:20:17;14.63;;;11.15;;
40997;SDS011;26740;45.944;12.480;2024-02-15T14:22:45;18.10;;;12.52;;
40997;SDS011;26740;45.944;12.480;2024-02-15T14:25:15;17.17;;;12.48;;
40997;SDS011;26740;45.944;12.480;2024-02-15T14:27:41;18.38;;;13.18;;
40997;SDS011;26740;45.944;12.480;2024-02-15T14:30:12;15.90;;;12.48;;
40997;SDS011;26740;45.944;12.480;2024-02-15T14:32:56;17.02;;;14.02;;
40997;SDS011;26740;45.944;12.480;2024-02-15T14:35:25;30.92;;;21.30;;
40997;SDS011;26740;45.944;12.480;2024-02-15T14:38:02;33.63;;;23.63;;
40997;SDS011;26740;45.944;12.480;2024-02-15T14:40:38;29.40;;;22.58;;
40997;SDS011;26740;45.944;12.480;2024-02-15T14:43:26;31.20;;;22.55;;
40997;SDS011;26740;45.944;12.480;2024-02-15T14:45:51;32.88;;;23.33;;